sensor_id;sensor_type;location;lat;lon;timestamp;pressure;altitude;pressure_sealevel;temperature;humidity
30343;BME280;17145;49.902;8.680;'2023-05-08 01:59:30';100360;;;16;58
30343;BME280;17145;49.902;8.680;'2023-05-08 02:01:58';100370;;;16;59
30343;BME280;17145;49.902;8.680;'2023-05-08 02:04:25';100370;;;16;59
30343;BME280;17145;49.902;8.680;'2023-05-08 02:06:53';100360;;;16;58
30343;BME280;17145;49.902;8.680;'2023-05-08 02:09:20';100370;;;16;58
30343;BME280;17145;49.902;8.680;'2023-05-08 02:11:47';100380;;;16;58
30343;BME280;17145;49.902;8.680;'2023-05-08 02:14:15';100380;;;16;58
30343;BME280;17145;49.902;8.680;'2023-05-08 02:16:42';100380;;;16;58
30343;BME280;17145;49.902;8.680;'2023-05-08 02:19:10';100380;;;16;57
30343;BME280;17145;49.902;8.680;'2023-05-08 02:21:37';100380;;;16;57
30343;BME280;17145;49.902;8.680;'2023-05-08 02:24:05';100380;;;16;56
30343;BME280;17145;49.902;8.680;'2023-05-08 02:26:33';100380;;;16;56
30343;BME280;17145;49.902;8.680;'2023-05-08 02:29:00';100380;;;16;56
30343;BME280;17145;49.902;8.680;'2023-05-08 02:31:27';100390;;;16;57
30343;BME280;17145;49.902;8.680;'2023-05-08 02:33:55';100390;;;16;57
30343;BME280;17145;49.902;8.680;'2023-05-08 02:36:22';100380;;;15;57
30343;BME280;17145;49.902;8.680;'2023-05-08 02:38:49';100380;;;16;57
30343;BME280;17145;49.902;8.680;'2023-05-08 02:41:17';100380;;;16;57
30343;BME280;17145;49.902;8.680;'2023-05-08 02:43:44';100380;;;15;57
30343;BME280;17145;49.902;8.680;'2023-05-08 02:46:12';100380;;;15;57
30343;BME280;17145;49.902;8.680;'2023-05-08 02:48:41';100380;;;15;57
30343;BME280;17145;49.902;8.680;'2023-05-08 02:51:09';100390;;;15;57
30343;BME280;17145;49.902;8.680;'2023-05-08 02:53:40';100380;;;15;57
30343;BME280;17145;49.902;8.680;'2023-05-08 02:56:11';100390;;;15;57
30343;BME280;17145;49.902;8.680;'2023-05-08 02:58:40';100390;;;15;57
30343;BME280;17145;49.902;8.680;'2023-05-08 03:01:07';100390;;;16;57
30343;BME280;17145;49.902;8.680;'2023-05-08 03:03:36';100390;;;15;57
30343;BME280;17145;49.902;8.680;'2023-05-08 03:06:05';100390;;;15;57
30343;BME280;17145;49.902;8.680;'2023-05-08 03:08:32';100390;;;15;57
30343;BME280;17145;49.902;8.680;'2023-05-08 03:11:13';100390;;;15;57
30343;BME280;17145;49.902;8.680;'2023-05-08 03:13:55';100390;;;16;57
30343;BME280;17145;49.902;8.680;'2023-05-08 03:16:31';100400;;;15;57
30343;BME280;17145;49.902;8.680;'2023-05-08 03:19:08';100400;;;15;57
30343;BME280;17145;49.902;8.680;'2023-05-08 03:21:44';100400;;;15;57
30343;BME280;17145;49.902;8.680;'2023-05-08 03:24:34';100400;;;15;58
30343;BME280;17145;49.902;8.680;'2023-05-08 03:27:24';100400;;;15;58
30343;BME280;17145;49.902;8.680;'2023-05-08 03:30:15';100400;;;15;57
30343;BME280;17145;49.902;8.680;'2023-05-08 03:32:49';100410;;;15;57
30343;BME280;17145;49.902;8.680;'2023-05-08 03:35:26';100410;;;15;57
30343;BME280;17145;49.902;8.680;'2023-05-08 03:38:00';100400;;;15;57
30343;BME280;17145;49.902;8.680;'2023-05-08 03:40:34';100410;;;15;57
30343;BME280;17145;49.902;8.680;'2023-05-08 03:43:12';100410;;;15;57
30343;BME280;17145;49.902;8.680;'2023-05-08 03:45:45';100410;;;15;57
30343;BME280;17145;49.902;8.680;'2023-05-08 03:48:19';100410;;;15;57
30343;BME280;17145;49.902;8.680;'2023-05-08 03:50:51';100410;;;15;57
30343;BME280;17145;49.902;8.680;'2023-05-08 03:53:24';100410;;;15;57
30343;BME280;17145;49.902;8.680;'2023-05-08 03:55:56';100410;;;15;57
30343;BME280;17145;49.902;8.680;'2023-05-08 03:58:25';100410;;;15;57
30343;BME280;17145;49.902;8.680;'2023-05-08 04:00:53';100410;;;15;56
30343;BME280;17145;49.902;8.680;'2023-05-08 04:03:23';100410;;;15;56
30343;BME280;17145;49.902;8.680;'2023-05-08 04:05:54';100410;;;15;56
30343;BME280;17145;49.902;8.680;'2023-05-08 04:08:23';100410;;;15;56
30343;BME280;17145;49.902;8.680;'2023-05-08 04:10:52';100410;;;15;56
30343;BME280;17145;49.902;8.680;'2023-05-08 04:13:21';100420;;;15;56
30343;BME280;17145;49.902;8.680;'2023-05-08 04:15:52';100420;;;15;56
30343;BME280;17145;49.902;8.680;'2023-05-08 04:18:22';100420;;;15;56
30343;BME280;17145;49.902;8.680;'2023-05-08 04:20:51';100420;;;15;56
30343;BME280;17145;49.902;8.680;'2023-05-08 04:23:22';100420;;;15;56
30343;BME280;17145;49.902;8.680;'2023-05-08 04:25:51';100420;;;15;56
30343;BME280;17145;49.902;8.680;'2023-05-08 04:28:19';100420;;;15;56
30343;BME280;17145;49.902;8.680;'2023-05-08 04:30:49';100420;;;15;56
30343;BME280;17145;49.902;8.680;'2023-05-08 04:33:18';100430;;;15;56
30343;BME280;17145;49.902;8.680;'2023-05-08 04:35:48';100430;;;15;57
30343;BME280;17145;49.902;8.680;'2023-05-08 04:38:19';100430;;;15;56
30343;BME280;17145;49.902;8.680;'2023-05-08 04:40:51';100430;;;15;56
30343;BME280;17145;49.902;8.680;'2023-05-08 04:43:19';100430;;;15;56
30343;BME280;17145;49.902;8.680;'2023-05-08 04:45:53';100430;;;15;56
30343;BME280;17145;49.902;8.680;'2023-05-08 04:48:27';100440;;;15;57
30343;BME280;17145;49.902;8.680;'2023-05-08 04:51:02';100440;;;15;57
30343;BME280;17145;49.902;8.680;'2023-05-08 04:53:34';100440;;;15;56
30343;BME280;17145;49.902;8.680;'2023-05-08 04:56:08';100440;;;15;56
30343;BME280;17145;49.902;8.680;'2023-05-08 04:58:43';100440;;;15;56
30343;BME280;17145;49.902;8.680;'2023-05-08 05:01:20';100440;;;15;56
30343;BME280;17145;49.902;8.680;'2023-05-08 05:03:57';100440;;;15;56
30343;BME280;17145;49.902;8.680;'2023-05-08 05:06:31';100430;;;15;56
30343;BME280;17145;49.902;8.680;'2023-05-08 05:09:01';100430;;;15;56
30343;BME280;17145;49.902;8.680;'2023-05-08 05:11:37';100420;;;15;56
30343;BME280;17145;49.902;8.680;'2023-05-08 05:14:08';100430;;;15;56
30343;BME280;17145;49.902;8.680;'2023-05-08 05:16:40';100430;;;15;56
30343;BME280;17145;49.902;8.680;'2023-05-08 05:19:18';100420;;;15;56
30343;BME280;17145;49.902;8.680;'2023-05-08 05:21:47';100420;;;14;56
30343;BME280;17145;49.902;8.680;'2023-05-08 05:24:16';100420;;;15;56
30343;BME280;17145;49.902;8.680;'2023-05-08 05:26:44';100420;;;15;56
30343;BME280;17145;49.902;8.680;'2023-05-08 05:29:13';100420;;;15;56
30343;BME280;17145;49.902;8.680;'2023-05-08 05:31:42';100420;;;15;56
30343;BME280;17145;49.902;8.680;'2023-05-08 05:34:12';100420;;;15;56
30343;BME280;17145;49.902;8.680;'2023-05-08 05:36:40';100420;;;15;56
30343;BME280;17145;49.902;8.680;'2023-05-08 05:39:07';100420;;;14;56
30343;BME280;17145;49.902;8.680;'2023-05-08 05:41:35';100430;;;15;56
30343;BME280;17145;49.902;8.680;'2023-05-08 05:44:03';100430;;;15;56
30343;BME280;17145;49.902;8.680;'2023-05-08 05:46:31';100430;;;15;56
30343;BME280;17145;49.902;8.680;'2023-05-08 05:49:02';100430;;;15;56
30343;BME280;17145;49.902;8.680;'2023-05-08 05:51:30';100430;;;15;56
30343;BME280;17145;49.902;8.680;'2023-05-08 05:53:58';100430;;;15;56
30343;BME280;17145;49.902;8.680;'2023-05-08 05:56:26';100430;;;15;56
30343;BME280;17145;49.902;8.680;'2023-05-08 05:59:01';100440;;;14;56
30343;BME280;17145;49.902;8.680;'2023-05-08 06:01:36';100440;;;15;56
30343;BME280;17145;49.902;8.680;'2023-05-08 06:04:09';100440;;;14;57
30343;BME280;17145;49.902;8.680;'2023-05-08 06:06:42';100440;;;15;57
30343;BME280;17145;49.902;8.680;'2023-05-08 06:09:16';100440;;;14;57
30343;BME280;17145;49.902;8.680;'2023-05-08 06:11:55';100450;;;14;57
30343;BME280;17145;49.902;8.680;'2023-05-08 06:14:29';100440;;;14;57
30343;BME280;17145;49.902;8.680;'2023-05-08 06:17:04';100450;;;14;56
30343;BME280;17145;49.902;8.680;'2023-05-08 06:19:37';100450;;;14;56
30343;BME280;17145;49.902;8.680;'2023-05-08 06:22:07';100450;;;14;56
30343;BME280;17145;49.902;8.680;'2023-05-08 06:24:40';100460;;;15;56
30343;BME280;17145;49.902;8.680;'2023-05-08 06:27:09';100460;;;15;56
30343;BME280;17145;49.902;8.680;'2023-05-08 06:29:37';100470;;;14;56
30343;BME280;17145;49.902;8.680;'2023-05-08 06:32:05';100470;;;14;56
30343;BME280;17145;49.902;8.680;'2023-05-08 06:34:32';100480;;;14;56
30343;BME280;17145;49.902;8.680;'2023-05-08 06:37:00';100480;;;14;57
30343;BME280;17145;49.902;8.680;'2023-05-08 06:39:27';100480;;;14;57
30343;BME280;17145;49.902;8.680;'2023-05-08 06:41:55';100490;;;14;57
30343;BME280;17145;49.902;8.680;'2023-05-08 06:44:22';100490;;;14;56
30343;BME280;17145;49.902;8.680;'2023-05-08 06:46:49';100490;;;14;56
30343;BME280;17145;49.902;8.680;'2023-05-08 06:49:17';100490;;;14;57
30343;BME280;17145;49.902;8.680;'2023-05-08 06:51:44';100490;;;14;57
30343;BME280;17145;49.902;8.680;'2023-05-08 06:54:11';100490;;;14;57
30343;BME280;17145;49.902;8.680;'2023-05-08 06:56:39';100500;;;14;57
30343;BME280;17145;49.902;8.680;'2023-05-08 06:59:06';100500;;;14;57
30343;BME280;17145;49.902;8.680;'2023-05-08 07:01:33';100500;;;14;56
30343;BME280;17145;49.902;8.680;'2023-05-08 07:04:01';100500;;;14;56
30343;BME280;17145;49.902;8.680;'2023-05-08 07:06:28';100490;;;14;57
30343;BME280;17145;49.902;8.680;'2023-05-08 07:08:55';100490;;;14;57
30343;BME280;17145;49.902;8.680;'2023-05-08 07:11:23';100490;;;14;57
30343;BME280;17145;49.902;8.680;'2023-05-08 07:13:50';100490;;;14;57
30343;BME280;17145;49.902;8.680;'2023-05-08 07:16:18';100500;;;14;56
30343;BME280;17145;49.902;8.680;'2023-05-08 07:18:45';100490;;;14;56
30343;BME280;17145;49.902;8.680;'2023-05-08 07:21:13';100490;;;14;56
30343;BME280;17145;49.902;8.680;'2023-05-08 07:23:40';100490;;;14;57
30343;BME280;17145;49.902;8.680;'2023-05-08 07:26:07';100490;;;14;56
30343;BME280;17145;49.902;8.680;'2023-05-08 07:28:35';100490;;;14;56
30343;BME280;17145;49.902;8.680;'2023-05-08 07:31:03';100490;;;14;56
30343;BME280;17145;49.902;8.680;'2023-05-08 07:33:30';100490;;;14;56
30343;BME280;17145;49.902;8.680;'2023-05-08 07:35:58';100500;;;15;56
30343;BME280;17145;49.902;8.680;'2023-05-08 07:38:25';100500;;;14;56
30343;BME280;17145;49.902;8.680;'2023-05-08 07:40:52';100500;;;14;56
30343;BME280;17145;49.902;8.680;'2023-05-08 07:43:20';100500;;;14;56
30343;BME280;17145;49.902;8.680;'2023-05-08 07:45:47';100500;;;14;56
30343;BME280;17145;49.902;8.680;'2023-05-08 07:48:14';100500;;;14;56
30343;BME280;17145;49.902;8.680;'2023-05-08 07:50:42';100500;;;14;56
30343;BME280;17145;49.902;8.680;'2023-05-08 07:53:09';100510;;;14;56
30343;BME280;17145;49.902;8.680;'2023-05-08 07:55:37';100510;;;14;56
30343;BME280;17145;49.902;8.680;'2023-05-08 07:58:04';100510;;;14;56
30343;BME280;17145;49.902;8.680;'2023-05-08 08:00:32';100510;;;14;55
30343;BME280;17145;49.902;8.680;'2023-05-08 08:02:59';100520;;;14;55
30343;BME280;17145;49.902;8.680;'2023-05-08 08:05:26';100520;;;14;56
30343;BME280;17145;49.902;8.680;'2023-05-08 08:07:54';100520;;;14;56
30343;BME280;17145;49.902;8.680;'2023-05-08 08:10:21';100520;;;14;56
30343;BME280;17145;49.902;8.680;'2023-05-08 08:12:48';100520;;;15;56
30343;BME280;17145;49.902;8.680;'2023-05-08 08:15:16';100520;;;14;55
30343;BME280;17145;49.902;8.680;'2023-05-08 08:17:43';100520;;;14;55
30343;BME280;17145;49.902;8.680;'2023-05-08 08:20:11';100530;;;14;55
30343;BME280;17145;49.902;8.680;'2023-05-08 08:22:38';100530;;;14;55
30343;BME280;17145;49.902;8.680;'2023-05-08 08:25:07';100540;;;14;55
30343;BME280;17145;49.902;8.680;'2023-05-08 08:27:34';100540;;;14;55
30343;BME280;17145;49.902;8.680;'2023-05-08 08:30:03';100540;;;14;55
30343;BME280;17145;49.902;8.680;'2023-05-08 08:32:30';100540;;;14;55
30343;BME280;17145;49.902;8.680;'2023-05-08 08:34:57';100550;;;14;55
30343;BME280;17145;49.902;8.680;'2023-05-08 08:37:24';100540;;;14;55
30343;BME280;17145;49.902;8.680;'2023-05-08 08:39:52';100550;;;14;56
30343;BME280;17145;49.902;8.680;'2023-05-08 08:42:19';100550;;;14;56
30343;BME280;17145;49.902;8.680;'2023-05-08 08:44:47';100550;;;15;56
30343;BME280;17145;49.902;8.680;'2023-05-08 08:47:14';100550;;;14;56
30343;BME280;17145;49.902;8.680;'2023-05-08 08:49:41';100550;;;15;56
30343;BME280;17145;49.902;8.680;'2023-05-08 08:52:09';100550;;;15;56
30343;BME280;17145;49.902;8.680;'2023-05-08 08:54:36';100550;;;15;56
30343;BME280;17145;49.902;8.680;'2023-05-08 08:57:03';100550;;;15;55
30343;BME280;17145;49.902;8.680;'2023-05-08 08:59:31';100540;;;15;55
30343;BME280;17145;49.902;8.680;'2023-05-08 09:01:59';100550;;;15;55
30343;BME280;17145;49.902;8.680;'2023-05-08 09:04:26';100540;;;15;55
30343;BME280;17145;49.902;8.680;'2023-05-08 09:06:54';100540;;;15;54
30343;BME280;17145;49.902;8.680;'2023-05-08 09:09:21';100540;;;15;53
30343;BME280;17145;49.902;8.680;'2023-05-08 09:11:49';100540;;;15;53
30343;BME280;17145;49.902;8.680;'2023-05-08 09:14:16';100540;;;15;52
30343;BME280;17145;49.902;8.680;'2023-05-08 09:16:43';100540;;;15;52
30343;BME280;17145;49.902;8.680;'2023-05-08 09:19:11';100550;;;15;52
30343;BME280;17145;49.902;8.680;'2023-05-08 09:21:39';100550;;;15;52
30343;BME280;17145;49.902;8.680;'2023-05-08 09:24:06';100550;;;15;51
30343;BME280;17145;49.902;8.680;'2023-05-08 09:26:36';100550;;;15;51
30343;BME280;17145;49.902;8.680;'2023-05-08 09:29:04';100550;;;15;51
30343;BME280;17145;49.902;8.680;'2023-05-08 09:31:33';100550;;;15;51
30343;BME280;17145;49.902;8.680;'2023-05-08 09:34:03';100550;;;16;51
30343;BME280;17145;49.902;8.680;'2023-05-08 09:36:30';100550;;;16;51
30343;BME280;17145;49.902;8.680;'2023-05-08 09:38:57';100550;;;15;51
30343;BME280;17145;49.902;8.680;'2023-05-08 09:41:26';100550;;;16;52
30343;BME280;17145;49.902;8.680;'2023-05-08 09:43:57';100560;;;15;51
30343;BME280;17145;49.902;8.680;'2023-05-08 09:46:25';100560;;;15;52
30343;BME280;17145;49.902;8.680;'2023-05-08 09:48:52';100560;;;15;51
30343;BME280;17145;49.902;8.680;'2023-05-08 09:51:20';100550;;;15;51
30343;BME280;17145;49.902;8.680;'2023-05-08 09:53:47';100560;;;15;51
30343;BME280;17145;49.902;8.680;'2023-05-08 09:56:15';100560;;;16;51
30343;BME280;17145;49.902;8.680;'2023-05-08 09:58:43';100560;;;16;51
30343;BME280;17145;49.902;8.680;'2023-05-08 10:01:12';100560;;;16;51
30343;BME280;17145;49.902;8.680;'2023-05-08 10:03:41';100560;;;16;51
30343;BME280;17145;49.902;8.680;'2023-05-08 10:06:09';100560;;;16;51
30343;BME280;17145;49.902;8.680;'2023-05-08 10:08:36';100560;;;16;51
30343;BME280;17145;49.902;8.680;'2023-05-08 10:11:04';100560;;;16;51
30343;BME280;17145;49.902;8.680;'2023-05-08 10:13:31';100560;;;16;51
30343;BME280;17145;49.902;8.680;'2023-05-08 10:15:59';100560;;;16;51
30343;BME280;17145;49.902;8.680;'2023-05-08 10:18:26';100560;;;16;51
30343;BME280;17145;49.902;8.680;'2023-05-08 10:20:54';100560;;;16;51
30343;BME280;17145;49.902;8.680;'2023-05-08 10:23:24';100560;;;16;52
30343;BME280;17145;49.902;8.680;'2023-05-08 10:25:52';100560;;;16;52
30343;BME280;17145;49.902;8.680;'2023-05-08 10:28:19';100560;;;16;52
30343;BME280;17145;49.902;8.680;'2023-05-08 10:30:46';100560;;;16;51
30343;BME280;17145;49.902;8.680;'2023-05-08 10:33:14';100560;;;16;52
30343;BME280;17145;49.902;8.680;'2023-05-08 10:35:41';100550;;;16;52
30343;BME280;17145;49.902;8.680;'2023-05-08 10:38:08';100550;;;16;52
30343;BME280;17145;49.902;8.680;'2023-05-08 10:40:38';100550;;;16;52
30343;BME280;17145;49.902;8.680;'2023-05-08 10:43:06';100540;;;16;52
30343;BME280;17145;49.902;8.680;'2023-05-08 10:45:34';100550;;;16;51
30343;BME280;17145;49.902;8.680;'2023-05-08 10:48:03';100550;;;16;51
30343;BME280;17145;49.902;8.680;'2023-05-08 10:50:31';100550;;;16;51
30343;BME280;17145;49.902;8.680;'2023-05-08 10:53:06';100560;;;16;51
30343;BME280;17145;49.902;8.680;'2023-05-08 10:55:38';100560;;;17;50
30343;BME280;17145;49.902;8.680;'2023-05-08 10:58:13';100560;;;16;50
30343;BME280;17145;49.902;8.680;'2023-05-08 11:00:41';100560;;;17;50
30343;BME280;17145;49.902;8.680;'2023-05-08 11:03:09';100560;;;17;49
30343;BME280;17145;49.902;8.680;'2023-05-08 11:05:36';100560;;;16;49
30343;BME280;17145;49.902;8.680;'2023-05-08 11:08:05';100570;;;16;49
30343;BME280;17145;49.902;8.680;'2023-05-08 11:10:34';100560;;;17;49
30343;BME280;17145;49.902;8.680;'2023-05-08 11:13:02';100570;;;16;49
30343;BME280;17145;49.902;8.680;'2023-05-08 11:15:30';100570;;;16;49
30343;BME280;17145;49.902;8.680;'2023-05-08 11:17:59';100570;;;16;49
30343;BME280;17145;49.902;8.680;'2023-05-08 11:20:27';100570;;;16;50
30343;BME280;17145;49.902;8.680;'2023-05-08 11:22:56';100580;;;16;50
30343;BME280;17145;49.902;8.680;'2023-05-08 11:25:23';100580;;;16;50
30343;BME280;17145;49.902;8.680;'2023-05-08 11:27:50';100580;;;17;50
30343;BME280;17145;49.902;8.680;'2023-05-08 11:30:18';100580;;;16;50
30343;BME280;17145;49.902;8.680;'2023-05-08 11:32:45';100580;;;16;50
30343;BME280;17145;49.902;8.680;'2023-05-08 11:35:12';100580;;;16;50
30343;BME280;17145;49.902;8.680;'2023-05-08 11:37:41';100580;;;16;50
30343;BME280;17145;49.902;8.680;'2023-05-08 11:40:13';100580;;;16;50
30343;BME280;17145;49.902;8.680;'2023-05-08 11:42:41';100580;;;16;51
30343;BME280;17145;49.902;8.680;'2023-05-08 11:45:10';100580;;;16;51
30343;BME280;17145;49.902;8.680;'2023-05-08 11:47:43';100590;;;16;50
30343;BME280;17145;49.902;8.680;'2023-05-08 11:50:10';100590;;;16;50
30343;BME280;17145;49.902;8.680;'2023-05-08 11:52:43';100590;;;16;50
30343;BME280;17145;49.902;8.680;'2023-05-08 11:55:11';100590;;;17;50
30343;BME280;17145;49.902;8.680;'2023-05-08 11:57:45';100590;;;16;50
30343;BME280;17145;49.902;8.680;'2023-05-08 12:00:13';100600;;;17;50
30343;BME280;17145;49.902;8.680;'2023-05-08 12:02:47';100600;;;16;50
30343;BME280;17145;49.902;8.680;'2023-05-08 12:05:23';100600;;;16;50
30343;BME280;17145;49.902;8.680;'2023-05-08 12:07:50';100600;;;16;49
30343;BME280;17145;49.902;8.680;'2023-05-08 12:10:22';100600;;;17;50
30343;BME280;17145;49.902;8.680;'2023-05-08 12:12:50';100600;;;17;50
30343;BME280;17145;49.902;8.680;'2023-05-08 12:15:19';100600;;;17;49
30343;BME280;17145;49.902;8.680;'2023-05-08 12:17:53';100600;;;17;50
30343;BME280;17145;49.902;8.680;'2023-05-08 12:20:23';100600;;;17;50
30343;BME280;17145;49.902;8.680;'2023-05-08 12:22:53';100600;;;17;50
30343;BME280;17145;49.902;8.680;'2023-05-08 12:25:22';100590;;;17;50
30343;BME280;17145;49.902;8.680;'2023-05-08 12:27:57';100590;;;17;50
30343;BME280;17145;49.902;8.680;'2023-05-08 12:30:26';100590;;;17;49
30343;BME280;17145;49.902;8.680;'2023-05-08 12:32:55';100590;;;17;50
30343;BME280;17145;49.902;8.680;'2023-05-08 12:35:22';100590;;;17;50
30343;BME280;17145;49.902;8.680;'2023-05-08 12:37:51';100590;;;17;49
30343;BME280;17145;49.902;8.680;'2023-05-08 12:40:19';100590;;;17;49
30343;BME280;17145;49.902;8.680;'2023-05-08 12:42:47';100580;;;17;48
30343;BME280;17145;49.902;8.680;'2023-05-08 12:45:15';100580;;;18;48
30343;BME280;17145;49.902;8.680;'2023-05-08 12:47:53';100580;;;18;49
30343;BME280;17145;49.902;8.680;'2023-05-08 12:50:32';100580;;;18;49
30343;BME280;17145;49.902;8.680;'2023-05-08 12:53:06';100580;;;18;48
30343;BME280;17145;49.902;8.680;'2023-05-08 12:55:37';100580;;;18;47
30343;BME280;17145;49.902;8.680;'2023-05-08 13:00:55';100580;;;19;47
30343;BME280;17145;49.902;8.680;'2023-05-08 13:03:25';100580;;;19;47
30343;BME280;17145;49.902;8.680;'2023-05-08 13:05:55';100580;;;18;47
30343;BME280;17145;49.902;8.680;'2023-05-08 13:08:24';100570;;;19;46
30343;BME280;17145;49.902;8.680;'2023-05-08 13:11:03';100570;;;19;46
30343;BME280;17145;49.902;8.680;'2023-05-08 13:13:33';100570;;;19;45
30343;BME280;17145;49.902;8.680;'2023-05-08 13:16:02';100570;;;19;46
30343;BME280;17145;49.902;8.680;'2023-05-08 13:18:30';100570;;;19;46
30343;BME280;17145;49.902;8.680;'2023-05-08 13:20:58';100570;;;19;46
30343;BME280;17145;49.902;8.680;'2023-05-08 13:23:28';100560;;;19;46
30343;BME280;17145;49.902;8.680;'2023-05-08 13:26:01';100560;;;19;46
30343;BME280;17145;49.902;8.680;'2023-05-08 13:28:31';100560;;;19;45
30343;BME280;17145;49.902;8.680;'2023-05-08 13:31:02';100560;;;19;46
30343;BME280;17145;49.902;8.680;'2023-05-08 13:33:31';100560;;;19;45
30343;BME280;17145;49.902;8.680;'2023-05-08 13:36:04';100560;;;20;45
30343;BME280;17145;49.902;8.680;'2023-05-08 13:38:34';100560;;;19;45
30343;BME280;17145;49.902;8.680;'2023-05-08 13:43:44';100550;;;20;44
30343;BME280;17145;49.902;8.680;'2023-05-08 13:46:14';100550;;;20;44
30343;BME280;17145;49.902;8.680;'2023-05-08 13:48:42';100550;;;20;43
30343;BME280;17145;49.902;8.680;'2023-05-08 13:51:10';100550;;;20;43
30343;BME280;17145;49.902;8.680;'2023-05-08 13:53:38';100550;;;20;44
30343;BME280;17145;49.902;8.680;'2023-05-08 13:56:06';100550;;;20;43
30343;BME280;17145;49.902;8.680;'2023-05-08 13:58:33';100540;;;20;43
30343;BME280;17145;49.902;8.680;'2023-05-08 14:01:01';100550;;;20;44
30343;BME280;17145;49.902;8.680;'2023-05-08 14:03:28';100540;;;20;43
30343;BME280;17145;49.902;8.680;'2023-05-08 14:05:57';100550;;;20;44
30343;BME280;17145;49.902;8.680;'2023-05-08 14:08:25';100550;;;20;44
30343;BME280;17145;49.902;8.680;'2023-05-08 14:10:54';100550;;;20;44
30343;BME280;17145;49.902;8.680;'2023-05-08 14:13:23';100550;;;20;44
30343;BME280;17145;49.902;8.680;'2023-05-08 14:15:52';100550;;;20;44
30343;BME280;17145;49.902;8.680;'2023-05-08 14:18:21';100550;;;20;43
30343;BME280;17145;49.902;8.680;'2023-05-08 14:20:51';100550;;;20;43
30343;BME280;17145;49.902;8.680;'2023-05-08 14:23:19';100550;;;20;43
30343;BME280;17145;49.902;8.680;'2023-05-08 14:25:46';100550;;;20;43
30343;BME280;17145;49.902;8.680;'2023-05-08 14:28:15';100550;;;20;43
30343;BME280;17145;49.902;8.680;'2023-05-08 14:30:42';100550;;;20;43
30343;BME280;17145;49.902;8.680;'2023-05-08 14:33:10';100550;;;20;43
30343;BME280;17145;49.902;8.680;'2023-05-08 14:35:38';100550;;;20;44
30343;BME280;17145;49.902;8.680;'2023-05-08 14:38:07';100550;;;21;44
30343;BME280;17145;49.902;8.680;'2023-05-08 14:40:40';100540;;;21;43
30343;BME280;17145;49.902;8.680;'2023-05-08 14:43:08';100540;;;20;43
30343;BME280;17145;49.902;8.680;'2023-05-08 14:45:37';100540;;;21;43
30343;BME280;17145;49.902;8.680;'2023-05-08 14:48:07';100540;;;21;43
30343;BME280;17145;49.902;8.680;'2023-05-08 14:50:35';100540;;;20;43
30343;BME280;17145;49.902;8.680;'2023-05-08 14:53:04';100540;;;21;43
30343;BME280;17145;49.902;8.680;'2023-05-08 14:55:34';100540;;;21;43
30343;BME280;17145;49.902;8.680;'2023-05-08 14:58:03';100530;;;21;43
30343;BME280;17145;49.902;8.680;'2023-05-08 15:00:36';100530;;;21;43
30343;BME280;17145;49.902;8.680;'2023-05-08 15:03:05';100530;;;21;42
30343;BME280;17145;49.902;8.680;'2023-05-08 15:05:34';100530;;;21;44
30343;BME280;17145;49.902;8.680;'2023-05-08 15:08:03';100530;;;20;44
30343;BME280;17145;49.902;8.680;'2023-05-08 15:10:44';100530;;;21;43
30343;BME280;17145;49.902;8.680;'2023-05-08 15:13:12';100530;;;20;43
30343;BME280;17145;49.902;8.680;'2023-05-08 15:15:39';100530;;;20;43
30343;BME280;17145;49.902;8.680;'2023-05-08 15:18:07';100530;;;20;43
30343;BME280;17145;49.902;8.680;'2023-05-08 15:20:34';100520;;;20;44
30343;BME280;17145;49.902;8.680;'2023-05-08 15:23:02';100520;;;20;44
30343;BME280;17145;49.902;8.680;'2023-05-08 15:25:31';100520;;;20;44
30343;BME280;17145;49.902;8.680;'2023-05-08 15:27:59';100520;;;20;44
30343;BME280;17145;49.902;8.680;'2023-05-08 15:30:26';100520;;;20;44
30343;BME280;17145;49.902;8.680;'2023-05-08 15:32:54';100520;;;20;44
30343;BME280;17145;49.902;8.680;'2023-05-08 15:35:22';100520;;;20;44
30343;BME280;17145;49.902;8.680;'2023-05-08 15:37:50';100520;;;20;45
30343;BME280;17145;49.902;8.680;'2023-05-08 15:40:18';100520;;;20;45
30343;BME280;17145;49.902;8.680;'2023-05-08 15:42:45';100520;;;19;45
30343;BME280;17145;49.902;8.680;'2023-05-08 15:45:13';100520;;;19;45
30343;BME280;17145;49.902;8.680;'2023-05-08 15:47:41';100520;;;20;45
30343;BME280;17145;49.902;8.680;'2023-05-08 15:50:10';100520;;;20;46
30343;BME280;17145;49.902;8.680;'2023-05-08 15:52:38';100520;;;20;46
30343;BME280;17145;49.902;8.680;'2023-05-08 15:55:08';100520;;;19;46
30343;BME280;17145;49.902;8.680;'2023-05-08 15:57:36';100520;;;19;47
30343;BME280;17145;49.902;8.680;'2023-05-08 16:00:05';100520;;;19;47
30343;BME280;17145;49.902;8.680;'2023-05-08 16:02:32';100530;;;19;47
30343;BME280;17145;49.902;8.680;'2023-05-08 16:04:59';100530;;;19;47
30343;BME280;17145;49.902;8.680;'2023-05-08 16:07:27';100530;;;19;48
30343;BME280;17145;49.902;8.680;'2023-05-08 16:09:54';100530;;;19;48
30343;BME280;17145;49.902;8.680;'2023-05-08 16:12:22';100520;;;19;48
30343;BME280;17145;49.902;8.680;'2023-05-08 16:14:49';100520;;;19;47
30343;BME280;17145;49.902;8.680;'2023-05-08 16:17:17';100520;;;19;47
30343;BME280;17145;49.902;8.680;'2023-05-08 16:19:45';100520;;;19;47
30343;BME280;17145;49.902;8.680;'2023-05-08 16:22:12';100520;;;19;47
30343;BME280;17145;49.902;8.680;'2023-05-08 16:24:39';100520;;;19;47